Davenport, FL

8:25 PM EST on February 10, 2016 (GMT -0500)
Polk County | | Change Station
CLOSE
Current Station
Personal Weather Station
Location: Davenport, FL
Elevation: 116 ft
Nearby Weather Stations
Active Advisory: Frost Advisory

Elev 116 ft 28.18 °N, 81.62 °W | Updated 5 minutes ago

Clear
Clear
44.4 °F
Feels Like 44 °F
N
0.0
Wind Variable Wind from ESE
Gusts 0.0 mph

Today
High -- | Low -- °F
--% Chance of Precip.
Yesterday
High -- | Low -- °F
Precip. -- in
Pressure 30.28 in
Visibility 10.0 miles
Clouds Clear
Windchill 44 °F
Dew Point 35 °F
Humidity 69%
Rainfall 0.00 in
Snow Depth Not available.
7:08 AM 6:13 PM
Waxing Crescent, 8% visible
METAR KGIF 110053Z AUTO 28006KT 10SM CLR 08/01 A3028 RMK AO2 SLP252 T00830006
Pressure 30.28 in
Visibility 10.0 miles
Clouds Clear
Windchill 44 °F
Dew Point 35 °F
Humidity 69%
Rainfall 0.00 in
Snow Depth Not available.
7:08 AM 6:13 PM
Waxing Crescent, 8% visible
METAR KGIF 110053Z AUTO 28006KT 10SM CLR 08/01 A3028 RMK AO2 SLP252 T00830006

10-Day Weather Forecast

Almanac

Astronomy

Feb. 10, 2016 Rise Set
Actual Time
Civil Twilight
Nautical Twilight
Astronomical Twilight
Moon
Length of Visible Light
Length of Day
Tomorrow will be .
, % of the Moon is Illuminated

Today's Extremes

State Highs State Lows

Community

WunderPhotos

Upload Photos

1,891,963 photos uploaded!

WunderBlog® & News

Nearby

Air Quality

  Air Quality AQ Index Pollutant
Not available.

Snow Depth

Station Depth Elevation

Earthquake Activity

City Distance Mag. Time & Date
Minimum magnitude displayed is 2.5.

Coastal Water Temperatures

Place Temperature

Stations

Nearby Weather Stations

Station Location Temp. Windchill Dew Point Humidity Wind Precip. Elev Updated Type
                   

Watches & Warnings

Frost Advisory
Issued: 2:43 PM EST Feb. 10, 2016 – National Weather Service

... Frost advisory in effect from 3 am to 9 am EST Thursday...

The National Weather Service in Tampa Bay area - Ruskin FL has
issued a frost advisory... which is in effect from 3 am to 9 am
EST Thursday.

* Temperature... 33 to 36

* impacts... sensitive plants may be killed

Precautionary/preparedness actions...

A frost advisory means that frost is possible. Sensitive outdoor
plants may be killed if left uncovered. Consider brining your pets
inside.